Time;durP1;ratioP1;P1;durP2;ratioP2;P2;SDS_P1;SDS_P2;PMS_P1;PMS_P2;Temp;Humidity;BMP_temperature;BMP_pressure;BME280_temperature;BME280_humidity;BME280_pressure;Samples;Min_cycle;Max_cycle;Signal;HPM_P1;HPM_P2
2022/01/22 00:01:39;;;;;;;14.65;1.63;;;;;;;8.17;79.52;103317.13;5046139;28;20040;-68
2022/01/22 00:04:05;;;;;;;22.00;2.53;;;;;;;7.63;81.91;103310.72;5049563;28;20132;-69
2022/01/22 00:06:30;;;;;;;14.75;2.05;;;;;;;7.84;80.66;103307.84;5047338;28;20129;-69
2022/01/22 00:08:55;;;;;;;16.75;2.95;;;;;;;7.67;81.64;103306.75;5048702;28;20075;-68
2022/01/22 00:11:21;;;;;;;10.63;2.55;;;;;;;7.44;82.70;103309.91;5053401;28;20223;-68
2022/01/22 00:16:30;;;;;;;14.70;1.73;;;;;;;7.73;81.56;103303.50;5051553;28;20136;-69
2022/01/22 00:18:55;;;;;;;14.55;2.95;;;;;;;7.77;81.34;103302.22;5053067;28;20115;-69
2022/01/22 00:21:20;;;;;;;21.25;2.42;;;;;;;7.75;81.44;103298.84;5046784;28;20029;-69
2022/01/22 00:23:55;;;;;;;10.15;1.35;;;;;;;7.84;81.01;103297.94;5045502;28;20487;-70
2022/01/22 00:26:21;;;;;;;10.55;2.60;;;;;;;7.70;81.08;103301.13;5050825;28;20075;-69
2022/01/22 00:28:46;;;;;;;12.32;1.77;;;;;;;7.69;81.04;103293.22;5049751;28;20108;-68
2022/01/22 00:31:11;;;;;;;20.30;2.05;;;;;;;7.97;80.50;103286.91;5039612;28;20125;-69
2022/01/22 00:33:37;;;;;;;11.80;1.65;;;;;;;7.83;80.51;103293.59;5046702;28;20033;-70
2022/01/22 00:36:03;;;;;;;18.95;3.28;;;;;;;8.01;80.20;103285.63;5042237;28;20514;-70
2022/01/22 00:38:28;;;;;;;17.10;1.60;;;;;;;7.84;80.92;103289.91;5035212;28;20068;-68
2022/01/22 00:40:54;;;;;;;23.17;2.55;;;;;;;7.86;80.49;103287.94;5043680;28;20045;-70
2022/01/22 00:43:20;;;;;;;13.00;1.88;;;;;;;7.72;81.38;103285.78;5043660;28;20041;-69
2022/01/22 00:45:46;;;;;;;14.20;1.50;;;;;;;7.89;80.68;103284.97;5052869;28;20041;-67
2022/01/22 00:48:11;;;;;;;22.95;4.55;;;;;;;7.62;81.29;103287.63;5052912;28;20037;-68
2022/01/22 00:50:37;;;;;;;15.60;2.22;;;;;;;7.85;80.76;103290.78;5049709;28;20092;-69
2022/01/22 00:53:03;;;;;;;11.57;1.77;;;;;;;7.81;80.45;103271.50;5050256;28;20501;-69
2022/01/22 00:55:28;;;;;;;17.45;2.22;;;;;;;7.89;80.65;103276.09;5051371;28;20079;-70
2022/01/22 00:57:53;;;;;;;23.30;3.47;;;;;;;7.77;81.16;103293.34;5016797;28;20430;-69
2022/01/22 01:00:19;;;;;;;19.55;2.80;;;;;;;7.92;80.25;103279.31;5038587;28;20117;-69
2022/01/22 01:02:45;;;;;;;11.35;2.17;;;;;;;7.50;81.59;103290.63;5052137;28;20051;-68
2022/01/22 01:05:12;;;;;;;13.98;2.15;;;;;;;7.81;80.77;103284.88;5052248;28;20033;-69
2022/01/22 01:07:39;;;;;;;13.85;2.72;;;;;;;7.88;80.61;103288.63;5051608;28;20040;-69
2022/01/22 01:10:06;;;;;;;8.93;2.13;;;;;;;7.84;80.79;103294.47;5051282;28;20091;-68
2022/01/22 01:12:32;;;;;;;7.13;1.85;;;;;;;7.56;82.21;103290.03;5052690;28;20566;-69
2022/01/22 01:15:22;;;;;;;11.93;1.75;;;;;;;7.51;81.83;103292.31;5051941;28;20025;-69
2022/01/22 01:34:24;;;;;;;20.17;2.17;;;;;;;7.82;81.00;103296.44;5032557;28;20515;-69
2022/01/22 01:36:50;;;;;;;18.40;1.75;;;;;;;7.78;81.35;103295.84;5049439;28;20102;-69
2022/01/22 01:39:23;;;;;;;11.48;1.83;;;;;;;7.67;81.74;103304.09;5052776;28;20036;-70
2022/01/22 01:44:15;;;;;;;15.93;2.20;;;;;;;7.71;81.89;103305.47;5037687;28;20096;-69
2022/01/22 01:46:45;;;;;;;17.42;2.30;;;;;;;7.92;81.18;103307.94;5039150;28;20496;-68
2022/01/22 01:49:11;;;;;;;7.03;1.63;;;;;;;7.74;81.44;103309.69;5037435;28;20045;-69
2022/01/22 01:51:37;;;;;;;10.02;1.60;;;;;;;7.99;80.53;103312.56;5042543;28;20443;-68
2022/01/22 01:54:24;;;;;;;12.25;1.77;;;;;;;7.85;80.91;103306.84;5032492;28;20036;-70
2022/01/22 01:59:32;;;;;;;17.52;1.90;;;;;;;8.20;79.50;103298.06;5032897;28;20567;-68
2022/01/22 02:01:58;;;;;;;10.82;2.38;;;;;;;8.00;80.09;103295.50;5032024;28;20038;-69
2022/01/22 02:04:23;;;;;;;6.35;2.17;;;;;;;7.87;80.48;103304.84;5051459;28;20041;-69
2022/01/22 02:06:49;;;;;;;10.65;1.75;;;;;;;7.91;80.69;103304.41;5048087;28;20113;-70
2022/01/22 02:09:14;;;;;;;14.88;1.35;;;;;;;7.79;81.16;103300.25;5038751;28;20113;-69
2022/01/22 02:11:41;;;;;;;11.55;1.52;;;;;;;7.67;81.67;103314.78;5037619;28;20037;-69
2022/01/22 02:24:59;;;;;;;5.03;1.05;;;;;;;7.82;81.25;103318.66;5031502;28;20531;-69
2022/01/22 02:27:24;;;;;;;11.25;1.48;;;;;;;7.87;80.41;103303.03;5031535;28;20028;-69
2022/01/22 02:29:50;;;;;;;13.73;2.00;;;;;;;7.93;80.48;103309.63;5032157;28;20488;-69
2022/01/22 02:35:26;;;;;;;16.75;2.85;;;;;;;7.75;81.72;103312.22;5037152;28;20148;-68
2022/01/22 02:37:49;;;;;;;18.70;1.70;;;;;;;7.75;81.15;103314.06;5044265;28;20053;-69
2022/01/22 02:40:23;;;;;;;9.75;2.03;;;;;;;7.78;81.23;103314.59;5051167;28;20029;-69
2022/01/22 02:42:48;;;;;;;5.63;1.08;;;;;;;7.87;80.96;103312.88;5050417;28;20043;-70
2022/01/22 02:45:18;;;;;;;17.05;2.60;;;;;;;7.85;80.87;103309.50;5051673;28;20476;-69
2022/01/22 02:47:44;;;;;;;3.83;0.93;;;;;;;7.83;81.37;103316.84;5051448;28;20060;-68
2022/01/22 02:50:10;;;;;;;7.05;1.58;;;;;;;7.76;81.50;103313.06;5050507;28;20056;-70
2022/01/22 02:52:35;;;;;;;7.65;1.58;;;;;;;7.72;81.61;103314.34;5035618;28;20037;-68
2022/01/22 02:55:05;;;;;;;6.05;1.73;;;;;;;7.89;81.12;103306.41;5044857;28;20041;-70
2022/01/22 02:57:32;;;;;;;8.10;1.67;;;;;;;7.80;81.25;103312.63;5048161;28;20696;-69
2022/01/22 02:59:59;;;;;;;11.32;1.23;;;;;;;7.57;81.98;103319.31;5036093;28;20087;-68
2022/01/22 03:02:25;;;;;;;10.07;1.23;;;;;;;7.54;82.16;103324.13;5032273;28;20045;-69
2022/01/22 03:04:50;;;;;;;10.00;2.95;;;;;;;7.64;82.43;103315.09;5048161;28;20147;-69
2022/01/22 03:07:15;;;;;;;14.68;1.63;;;;;;;7.82;80.92;103324.03;5044078;28;20046;-69
2022/01/22 03:09:41;;;;;;;8.20;1.63;;;;;;;7.79;81.65;103318.97;5049250;28;20033;-68
2022/01/22 03:17:36;;;;;;;11.80;1.58;;;;;;;7.79;81.29;103318.97;5047445;28;20102;-69
2022/01/22 03:20:21;;;;;;;9.10;1.15;;;;;;;7.44;82.30;103332.19;5051009;28;20048;-67
2022/01/22 03:27:56;;;;;;;6.20;0.90;;;;;;;7.58;81.83;103329.06;5032314;28;20052;-69
2022/01/22 03:30:23;;;;;;;7.07;1.40;;;;;;;7.87;81.21;103327.13;5030652;28;20037;-69
2022/01/22 03:32:52;;;;;;;13.98;2.17;;;;;;;8.00;80.35;103330.28;5030948;28;20041;-69
2022/01/22 03:37:43;;;;;;;12.18;1.27;;;;;;;7.78;81.14;103332.50;5050450;28;20063;-70
2022/01/22 03:40:12;;;;;;;10.10;1.30;;;;;;;7.67;81.57;103336.19;5047647;28;20048;-68
2022/01/22 03:42:39;;;;;;;10.07;1.33;;;;;;;7.48;83.10;103332.72;5051398;28;20037;-69
2022/01/22 03:45:07;;;;;;;18.58;1.73;;;;;;;7.75;81.71;103333.63;5050544;28;20073;-68
2022/01/22 03:47:32;;;;;;;9.43;1.88;;;;;;;7.75;82.16;103340.81;5034824;28;20029;-69
2022/01/22 03:49:58;;;;;;;6.03;1.40;;;;;;;7.59;82.33;103351.28;5034867;28;20095;-70
2022/01/22 03:52:23;;;;;;;10.27;1.33;;;;;;;7.69;81.80;103352.94;5038694;28;20039;-70
2022/01/22 03:54:49;;;;;;;8.55;2.17;;;;;;;7.82;81.34;103337.41;5034432;28;20551;-69
2022/01/22 03:57:15;;;;;;;7.25;1.23;;;;;;;7.74;81.97;103333.78;5028784;28;20041;-69
2022/01/22 03:59:40;;;;;;;14.23;1.42;;;;;;;7.53;83.15;103333.13;5035669;28;20087;-68
2022/01/22 04:02:39;;;;;;;7.90;1.55;;;;;;;7.55;83.29;103337.34;5045064;28;20041;-69
2022/01/22 04:04:59;;;;;;;11.18;1.98;;;;;;;7.53;84.30;103341.16;5047044;28;20053;-70
2022/01/22 04:10:10;;;;;;;6.97;1.35;;;;;;;7.54;84.65;103329.47;5052305;28;20040;-69
2022/01/22 04:15:13;;;;;;;9.18;2.05;;;;;;;7.58;84.15;103342.44;5034589;28;20041;-69
2022/01/22 04:26:02;;;;;;;6.20;0.95;;;;;;;7.72;83.68;103336.63;4982224;28;20054;-68
2022/01/22 04:28:28;;;;;;;4.85;1.45;;;;;;;7.77;83.05;103334.34;4983479;28;20494;-70
2022/01/22 04:30:53;;;;;;;8.05;1.67;;;;;;;7.89;83.14;103340.34;4973535;28;20047;-68
2022/01/22 04:33:18;;;;;;;12.90;2.05;;;;;;;7.74;83.73;103344.50;4982048;28;20039;-68
2022/01/22 04:35:44;;;;;;;11.18;1.63;;;;;;;7.77;83.40;103347.72;4985993;28;20141;-68
2022/01/22 04:38:10;;;;;;;7.65;2.35;;;;;;;7.91;82.67;103354.44;4991810;28;20474;-70
2022/01/22 04:40:36;;;;;;;13.15;1.63;;;;;;;8.09;81.86;103343.78;4992450;28;20042;-68
2022/01/22 04:43:03;;;;;;;11.00;2.28;;;;;;;8.20;81.96;103343.59;4991018;28;20042;-69
2022/01/22 04:56:42;;;;;;;9.50;2.35;;;;;;;7.93;82.90;103334.56;4934750;29;20523;-68
2022/01/22 04:59:07;;;;;;;9.10;2.33;;;;;;;7.66;84.28;103329.16;4933705;29;20044;-69
2022/01/22 05:01:32;;;;;;;9.98;2.13;;;;;;;7.64;84.22;103331.16;4962238;28;20050;-69
2022/01/22 05:03:58;;;;;;;16.45;1.85;;;;;;;7.76;84.33;103332.63;4991425;28;20058;-69
2022/01/22 05:06:26;;;;;;;8.55;2.10;;;;;;;7.75;84.57;103335.47;4991001;28;20494;-69
2022/01/22 05:08:52;;;;;;;9.15;1.90;;;;;;;7.98;83.39;103332.28;4991315;28;20106;-69
2022/01/22 05:11:18;;;;;;;9.93;1.75;;;;;;;7.80;83.97;103333.22;4991326;28;20585;-68
2022/01/22 05:13:43;;;;;;;7.47;1.27;;;;;;;7.75;84.46;103333.63;4990971;28;20042;-70
2022/01/22 05:16:09;;;;;;;7.43;1.70;;;;;;;7.96;83.49;103334.25;4990677;28;20038;-70
2022/01/22 05:18:41;;;;;;;14.35;1.45;;;;;;;7.91;83.44;103341.91;4991173;28;20547;-69
2022/01/22 05:21:11;;;;;;;8.23;1.65;;;;;;;7.46;84.58;103340.91;4990677;28;20068;-69
2022/01/22 05:23:38;;;;;;;10.05;1.73;;;;;;;7.69;84.16;103336.91;4974637;28;20026;-69
2022/01/22 05:26:07;;;;;;;12.73;1.98;;;;;;;7.79;83.70;103344.88;5043586;28;20044;-69
2022/01/22 05:39:09;;;;;;;12.25;2.35;;;;;;;7.47;84.99;103347.09;5037973;28;20040;-70
2022/01/22 05:41:34;;;;;;;11.85;2.03;;;;;;;7.61;84.28;103341.28;5032312;28;20053;-70
2022/01/22 05:43:59;;;;;;;4.75;2.10;;;;;;;7.55;84.54;103348.06;5038111;28;20063;-69
2022/01/22 05:46:25;;;;;;;9.45;2.20;;;;;;;7.67;84.05;103344.22;5051158;28;20033;-70
2022/01/22 05:48:50;;;;;;;7.53;2.33;;;;;;;7.43;84.55;103345.69;5040537;28;20444;-70
2022/01/22 05:51:16;;;;;;;6.90;2.00;;;;;;;7.53;84.99;103350.03;5037199;28;20124;-69
2022/01/22 05:54:16;;;;;;;8.27;1.83;;;;;;;7.45;84.90;103351.75;5032970;28;20049;-69
2022/01/22 05:59:37;;;;;;;8.10;2.10;;;;;;;7.32;85.41;103354.72;5050065;28;20052;-69
2022/01/22 06:02:08;;;;;;;3.40;1.67;;;;;;;7.36;85.27;103357.94;5036477;28;20064;-69
2022/01/22 06:04:35;;;;;;;4.18;1.17;;;;;;;7.33;85.16;103355.56;5037603;28;20041;-69
2022/01/22 06:07:02;;;;;;;11.30;1.67;;;;;;;7.39;84.93;103361.16;5041055;28;20125;-70
2022/01/22 06:09:28;;;;;;;3.15;1.10;;;;;;;7.41;85.09;103359.19;5040347;28;20139;-69
2022/01/22 06:12:04;;;;;;;6.07;1.60;;;;;;;7.26;85.56;103360.63;5050947;28;20482;-69
2022/01/22 06:14:29;;;;;;;5.85;2.15;;;;;;;7.29;85.70;103364.84;5038058;28;20044;-69
2022/01/22 06:16:55;;;;;;;4.28;1.30;;;;;;;7.27;85.55;103366.81;5048329;28;20535;-68
2022/01/22 06:19:20;;;;;;;5.40;1.60;;;;;;;7.13;86.34;103365.44;5036256;28;20056;-68
2022/01/22 06:21:45;;;;;;;9.82;1.27;;;;;;;7.32;85.71;103361.88;5037530;28;20053;-69
2022/01/22 06:24:12;;;;;;;6.38;1.98;;;;;;;7.04;86.62;103364.44;5031191;28;20362;-70
2022/01/22 06:26:38;;;;;;;4.25;1.58;;;;;;;7.41;85.86;103367.22;5032151;28;20112;-69
2022/01/22 06:29:04;;;;;;;7.30;1.80;;;;;;;7.17;86.54;103368.66;5034486;28;20048;-68
2022/01/22 06:31:30;;;;;;;4.78;1.77;;;;;;;7.26;86.55;103370.47;5045545;28;20040;-67
2022/01/22 06:33:57;;;;;;;14.10;2.10;;;;;;;7.33;86.32;103371.59;5051612;28;20037;-69
2022/01/22 06:36:22;;;;;;;7.38;2.05;;;;;;;7.47;85.52;103382.69;5032700;28;20039;-69
2022/01/22 06:38:48;;;;;;;7.93;2.15;;;;;;;7.34;86.43;103392.00;5035995;28;20107;-69
2022/01/22 06:43:57;;;;;;;8.13;2.00;;;;;;;7.44;85.65;103390.16;5051516;28;20044;-70
2022/01/22 06:46:23;;;;;;;7.20;1.67;;;;;;;7.51;86.44;103399.34;5048374;28;20039;-70
2022/01/22 06:48:48;;;;;;;5.03;2.15;;;;;;;7.39;86.83;103400.47;5031415;28;20108;-70
2022/01/22 06:51:13;;;;;;;10.13;2.40;;;;;;;7.43;86.66;103397.34;5051103;28;20049;-69
2022/01/22 06:53:40;;;;;;;7.55;2.50;;;;;;;7.19;87.21;103402.31;5049985;28;20492;-69
2022/01/22 06:56:09;;;;;;;13.95;2.72;;;;;;;7.33;87.33;103407.19;5031521;28;20044;-68
2022/01/22 06:58:34;;;;;;;4.47;2.05;;;;;;;7.49;86.99;103412.81;5033183;28;20042;-69
2022/01/22 07:00:59;;;;;;;11.88;2.92;;;;;;;7.72;86.15;103410.69;5048977;28;20045;-69
2022/01/22 07:03:25;;;;;;;19.88;4.03;;;;;;;7.39;87.52;103412.00;5051018;28;20041;-68
2022/01/22 07:05:51;;;;;;;5.30;2.60;;;;;;;7.61;86.67;103403.66;5048661;28;20536;-70
2022/01/22 07:08:16;;;;;;;9.98;3.30;;;;;;;7.64;85.97;103400.72;5040709;28;20069;-69
2022/01/22 07:10:42;;;;;;;13.63;3.45;;;;;;;8.09;84.17;103405.38;5051093;28;20813;-69
2022/01/22 07:13:07;;;;;;;8.88;2.65;;;;;;;7.66;85.90;103401.41;5050615;28;20033;-69
2022/01/22 07:15:33;;;;;;;11.02;3.17;;;;;;;7.67;85.94;103405.78;5050792;28;20107;-69
2022/01/22 07:17:58;;;;;;;10.63;2.63;;;;;;;7.50;86.49;103403.84;5050551;28;20037;-71
2022/01/22 07:20:29;;;;;;;7.90;2.67;;;;;;;7.61;86.14;103395.63;5047095;28;20021;-67
2022/01/22 07:25:24;;;;;;;6.72;2.17;;;;;;;7.48;86.52;103404.94;5043453;28;20672;-70
2022/01/22 07:27:50;;;;;;;7.32;1.60;;;;;;;7.61;86.10;103411.69;5045327;28;20047;-69
2022/01/22 07:30:15;;;;;;;5.20;1.63;;;;;;;7.67;85.84;103399.56;5046539;28;20380;-68
2022/01/22 07:32:44;;;;;;;3.75;2.03;;;;;;;7.74;85.52;103406.88;5051398;28;20107;-68
2022/01/22 07:35:15;;;;;;;3.85;1.73;;;;;;;7.48;86.19;103405.81;5045368;28;20076;-69
2022/01/22 07:37:41;;;;;;;3.90;1.73;;;;;;;7.61;85.49;103403.66;5028524;28;20500;-67
2022/01/22 07:40:08;;;;;;;13.20;2.95;;;;;;;7.70;84.97;103408.19;5050852;28;20079;-69
2022/01/22 07:42:33;;;;;;;4.80;2.00;;;;;;;7.69;84.97;103406.47;5049859;28;20040;-69
2022/01/22 07:44:59;;;;;;;5.10;1.83;;;;;;;7.65;85.30;103399.72;5049987;28;20060;-69
2022/01/22 07:47:25;;;;;;;10.43;3.42;;;;;;;7.68;84.56;103402.13;5050685;28;20115;-69
2022/01/22 07:49:50;;;;;;;5.50;2.65;;;;;;;7.64;85.25;103402.53;5050537;28;20385;-69
2022/01/22 07:52:15;;;;;;;7.47;2.08;;;;;;;7.65;85.69;103404.22;5032495;28;20033;-69
2022/01/22 07:54:41;;;;;;;17.05;2.47;;;;;;;7.79;85.05;103409.97;5030637;28;20037;-69
2022/01/22 07:57:06;;;;;;;3.15;1.30;;;;;;;7.51;85.90;103416.22;5037819;28;20071;-71
2022/01/22 07:59:35;;;;;;;7.97;2.47;;;;;;;7.76;85.39;103410.25;5050541;28;20032;-69
2022/01/22 08:02:05;;;;;;;10.57;2.53;;;;;;;7.58;86.06;103412.00;5050750;28;20037;-68
2022/01/22 08:04:31;;;;;;;4.57;1.90;;;;;;;7.62;86.06;103408.03;5050287;28;20168;-68
2022/01/22 08:06:58;;;;;;;7.45;1.98;;;;;;;7.49;86.10;103415.50;5045446;28;20549;-68
2022/01/22 08:09:24;;;;;;;4.05;2.20;;;;;;;7.71;86.12;103415.19;5038230;28;20520;-69
2022/01/22 08:11:49;;;;;;;13.07;2.80;;;;;;;7.69;85.92;103413.66;5023674;28;20058;-68
2022/01/22 08:14:15;;;;;;;15.25;2.67;;;;;;;7.49;86.36;103425.38;5043369;28;20445;-68
2022/01/22 08:16:41;;;;;;;13.70;3.55;;;;;;;7.51;85.90;103426.91;5049633;28;20175;-70
2022/01/22 08:19:07;;;;;;;9.68;3.25;;;;;;;7.81;86.13;103428.56;5044770;28;20044;-69
2022/01/22 08:21:32;;;;;;;7.57;3.25;;;;;;;7.89;85.18;103429.53;5050026;28;20500;-70
2022/01/22 08:23:58;;;;;;;10.68;3.30;;;;;;;7.64;85.88;103431.97;5045747;28;20047;-70
2022/01/22 08:26:28;;;;;;;4.97;2.70;;;;;;;7.66;85.82;103430.84;5050413;28;20472;-69
2022/01/22 08:28:54;;;;;;;15.75;2.83;;;;;;;7.58;86.20;103436.06;5050873;28;20090;-68
2022/01/22 08:36:39;;;;;;;11.80;3.15;;;;;;;7.66;85.53;103433.53;5053332;28;20110;-68
2022/01/22 08:39:06;;;;;;;10.13;2.50;;;;;;;7.84;84.43;103434.47;5053738;28;20033;-69
2022/01/22 08:41:33;;;;;;;7.25;2.13;;;;;;;7.68;85.15;103444.94;5052883;28;20506;-69
2022/01/22 08:43:59;;;;;;;7.75;2.00;;;;;;;7.71;85.09;103441.97;5053546;28;20045;-71
2022/01/22 08:46:25;;;;;;;7.93;2.35;;;;;;;7.76;85.03;103444.22;5035158;28;20029;-69
2022/01/22 08:48:51;;;;;;;22.30;2.10;;;;;;;7.83;84.53;103443.50;5035336;28;20033;-68
2022/01/22 08:51:16;;;;;;;15.18;2.13;;;;;;;7.89;84.44;103436.72;5032203;28;20374;-69
2022/01/22 08:53:42;;;;;;;15.02;2.65;;;;;;;7.82;84.94;103449.81;5036116;28;20018;-68
2022/01/22 08:56:09;;;;;;;9.32;2.03;;;;;;;7.80;85.09;103443.78;5017215;28;20033;-68
2022/01/22 08:58:34;;;;;;;12.25;2.72;;;;;;;7.77;85.50;103445.91;5042011;28;20128;-70
2022/01/22 09:01:00;;;;;;;9.43;1.83;;;;;;;7.92;84.39;103444.47;5034760;28;20399;-69
2022/01/22 09:03:26;;;;;;;10.82;1.90;;;;;;;7.89;84.85;103442.06;5028146;28;20040;-71
2022/01/22 09:05:53;;;;;;;9.63;2.70;;;;;;;8.25;83.81;103448.50;5041797;28;20039;-72
2022/01/22 09:08:20;;;;;;;7.78;1.88;;;;;;;8.26;83.54;103453.69;5041321;28;20033;-70
2022/01/22 09:10:45;;;;;;;17.88;3.17;;;;;;;8.24;83.62;103455.66;5028382;28;20128;-70
2022/01/22 09:13:11;;;;;;;13.05;2.50;;;;;;;8.16;83.75;103452.84;5028462;28;20125;-69
2022/01/22 09:15:37;;;;;;;11.27;2.58;;;;;;;7.90;84.93;103455.31;5031089;28;20041;-68
2022/01/22 09:18:04;;;;;;;13.88;2.45;;;;;;;8.02;84.37;103454.16;5033283;28;20412;-70
2022/01/22 09:20:45;;;;;;;7.15;2.10;;;;;;;8.21;84.02;103465.81;5034074;28;20099;-70
2022/01/22 09:23:11;;;;;;;9.35;2.28;;;;;;;7.98;84.23;103462.63;5033092;28;20025;-70
2022/01/22 09:25:37;;;;;;;25.65;2.95;;;;;;;8.24;83.62;103463.69;5029491;28;20057;-69
2022/01/22 09:28:03;;;;;;;9.75;1.98;;;;;;;8.32;83.29;103463.84;5032842;28;20052;-70
2022/01/22 09:30:30;;;;;;;9.68;2.55;;;;;;;8.39;83.10;103469.47;5031063;28;20049;-70
2022/01/22 09:32:55;;;;;;;17.23;2.92;;;;;;;8.17;83.64;103467.94;5031111;28;20041;-70
2022/01/22 09:35:21;;;;;;;7.35;2.13;;;;;;;8.20;83.35;103470.31;5027127;28;20484;-70
2022/01/22 09:37:47;;;;;;;6.03;2.22;;;;;;;8.36;82.89;103477.78;5031741;28;20038;-70
2022/01/22 09:40:13;;;;;;;18.23;3.00;;;;;;;8.21;83.69;103473.84;5028450;28;20037;-69
2022/01/22 09:42:41;;;;;;;17.13;2.78;;;;;;;8.36;82.93;103477.78;5037367;28;20041;-69
2022/01/22 09:45:08;;;;;;;10.48;2.30;;;;;;;8.44;82.38;103477.88;5040480;28;20044;-69
2022/01/22 09:47:35;;;;;;;8.68;2.60;;;;;;;8.31;82.66;103478.22;5036856;28;20075;-70
2022/01/22 09:50:04;;;;;;;16.75;3.30;;;;;;;8.46;81.94;103479.44;5031694;28;20049;-69
2022/01/22 09:52:29;;;;;;;14.52;4.22;;;;;;;8.52;82.31;103478.00;5032409;28;20080;-70
2022/01/22 09:54:55;;;;;;;15.70;4.55;;;;;;;7.96;83.66;103480.66;5042519;28;20033;-70
2022/01/22 09:57:21;;;;;;;11.65;3.20;;;;;;;8.29;83.23;103482.03;5034792;28;20090;-70
2022/01/22 09:59:46;;;;;;;19.50;2.92;;;;;;;8.31;83.49;103478.22;5041146;28;20014;-70
2022/01/22 10:02:11;;;;;;;19.70;2.72;;;;;;;8.31;83.37;103483.59;5018502;28;20046;-69
2022/01/22 10:04:39;;;;;;;13.07;3.83;;;;;;;8.39;82.98;103483.69;5023020;28;20377;-69
2022/01/22 10:07:13;;;;;;;14.02;2.75;;;;;;;8.42;82.78;103477.19;5029761;28;20405;-70
2022/01/22 10:10:00;;;;;;;13.43;2.85;;;;;;;8.47;82.47;103488.34;5033144;28;20478;-69
2022/01/22 10:12:29;;;;;;;6.43;2.40;;;;;;;8.31;83.23;103494.31;5031183;28;20030;-71
2022/01/22 10:15:17;;;;;;;16.58;3.90;;;;;;;8.50;82.61;103488.03;5031833;28;20037;-70
2022/01/22 10:17:54;;;;;;;13.48;3.13;;;;;;;8.65;82.09;103490.06;5029039;28;20033;-69
2022/01/22 10:20:23;;;;;;;19.80;3.38;;;;;;;8.72;81.60;103496.56;5027716;28;20091;-69
2022/01/22 10:22:51;;;;;;;19.80;3.88;;;;;;;8.84;81.07;103489.97;5030711;28;20515;-70
2022/01/22 10:25:31;;;;;;;16.52;4.22;;;;;;;8.53;81.81;103490.44;5031690;28;20401;-70
2022/01/22 10:28:02;;;;;;;10.40;2.92;;;;;;;8.82;80.77;103485.78;5031125;28;20722;-69
2022/01/22 10:30:35;;;;;;;15.93;3.25;;;;;;;8.88;80.58;103486.00;5028363;28;20045;-70
2022/01/22 10:35:50;;;;;;;15.70;3.63;;;;;;;8.91;80.61;103490.22;5035285;28;20029;-69
2022/01/22 10:38:18;;;;;;;14.35;3.53;;;;;;;8.92;80.54;103480.34;5010750;28;20038;-69
2022/01/22 10:40:45;;;;;;;19.50;4.15;;;;;;;8.83;80.34;103480.25;5015195;28;20400;-70
2022/01/22 10:43:16;;;;;;;12.20;3.65;;;;;;;9.03;80.20;103474.78;5028190;28;20034;-69
2022/01/22 10:45:56;;;;;;;11.13;3.13;;;;;;;9.01;79.76;103487.50;5027459;28;20166;-69
2022/01/22 10:48:22;;;;;;;9.88;3.70;;;;;;;9.10;79.91;103487.41;5026158;28;20087;-70
2022/01/22 10:51:04;;;;;;;17.48;4.00;;;;;;;9.18;79.51;103475.97;5027739;28;20029;-70
2022/01/22 10:54:00;;;;;;;13.18;3.17;;;;;;;9.12;79.62;103495.34;5026627;28;20465;-71
2022/01/22 10:56:28;;;;;;;12.00;3.22;;;;;;;9.01;79.71;103491.03;5016646;28;20104;-70
2022/01/22 10:59:05;;;;;;;15.57;4.25;;;;;;;9.11;79.57;103496.31;5025948;28;20048;-70
2022/01/22 11:01:32;;;;;;;9.00;3.55;;;;;;;9.20;78.74;103490.88;5027118;28;20766;-69
2022/01/22 11:04:16;;;;;;;9.02;2.58;;;;;;;9.01;79.54;103482.97;5025423;28;20046;-71
2022/01/22 11:06:55;;;;;;;7.43;2.30;;;;;;;8.59;80.89;103481.75;5025605;28;20726;-70
2022/01/22 11:09:23;;;;;;;8.07;3.05;;;;;;;8.94;80.17;103489.09;5019200;28;20076;-70
2022/01/22 11:11:49;;;;;;;10.73;3.40;;;;;;;8.87;80.51;103483.47;5041477;28;20508;-70
2022/01/22 11:14:14;;;;;;;11.77;2.67;;;;;;;9.17;79.79;103496.56;5031625;28;20041;-70
2022/01/22 11:16:42;;;;;;;12.40;3.33;;;;;;;9.15;79.10;103482.47;5034478;28;20635;-69
2022/01/22 11:19:13;;;;;;;10.68;3.38;;;;;;;9.15;79.28;103479.78;5038860;28;20080;-69
2022/01/22 11:21:46;;;;;;;9.48;3.67;;;;;;;9.04;79.54;103474.63;5040599;28;20025;-70
2022/01/22 11:24:13;;;;;;;9.50;2.85;;;;;;;8.94;79.81;103483.72;5029226;28;20041;-69
2022/01/22 11:26:39;;;;;;;15.38;4.10;;;;;;;8.83;80.23;103477.56;5039840;28;20025;-70
2022/01/22 11:29:06;;;;;;;12.95;3.55;;;;;;;9.03;79.32;103480.13;5038444;28;20044;-70
2022/01/22 11:31:33;;;;;;;14.07;3.38;;;;;;;9.17;79.13;103477.78;5042361;28;20065;-70
2022/01/22 11:34:04;;;;;;;7.43;3.20;;;;;;;9.05;79.50;103486.19;5039977;28;20064;-68
2022/01/22 11:36:43;;;;;;;10.73;3.28;;;;;;;8.99;79.39;103479.59;5035935;28;20040;-71
2022/01/22 11:39:17;;;;;;;11.82;4.05;;;;;;;9.14;78.78;103480.75;5041675;28;20376;-69
2022/01/22 11:41:58;;;;;;;11.90;3.28;;;;;;;8.77;80.30;103482.69;5044814;28;20044;-70
2022/01/22 11:44:33;;;;;;;12.27;3.42;;;;;;;8.72;80.23;103477.78;5042438;28;20042;-69
2022/01/22 11:47:17;;;;;;;18.17;3.63;;;;;;;8.91;79.90;103476.81;5041976;28;20041;-69
2022/01/22 11:50:09;;;;;;;8.30;3.08;;;;;;;9.04;79.31;103476.47;5044252;28;20033;-70
2022/01/22 11:52:38;;;;;;;12.57;2.75;;;;;;;9.33;78.08;103479.78;5044218;28;20528;-70
2022/01/22 11:55:12;;;;;;;10.20;3.58;;;;;;;9.30;78.13;103477.41;5042274;28;20525;-72
2022/01/22 11:57:39;;;;;;;12.50;3.60;;;;;;;9.25;78.87;103477.88;5044045;28;20064;-70
2022/01/22 12:00:24;;;;;;;13.55;3.50;;;;;;;9.25;78.56;103483.25;5040632;28;20044;-70
2022/01/22 12:03:08;;;;;;;8.00;3.05;;;;;;;9.27;78.73;103480.41;5046025;28;20028;-68
2022/01/22 12:05:59;;;;;;;6.78;2.67;;;;;;;9.36;78.63;103474.97;5047659;28;20048;-69
2022/01/22 12:08:25;;;;;;;18.65;4.13;;;;;;;9.29;78.63;103473.06;5039959;28;20064;-70
2022/01/22 12:16:40;;;;;;;9.43;3.88;;;;;;;9.38;76.95;103467.59;5042242;28;20040;-69
2022/01/22 12:19:38;;;;;;;8.07;2.42;;;;;;;9.40;76.16;103470.97;5042634;28;20033;-69
2022/01/22 12:22:32;;;;;;;10.43;2.97;;;;;;;9.33;77.04;103477.13;5040105;28;20553;-70
2022/01/22 12:25:09;;;;;;;7.07;2.35;;;;;;;9.13;76.94;103484.44;5044859;28;20439;-69
2022/01/22 12:27:48;;;;;;;6.63;2.80;;;;;;;9.22;76.23;103485.41;5042872;28;20492;-69
2022/01/22 12:30:15;;;;;;;8.00;2.63;;;;;;;8.99;78.17;103487.66;5041587;28;20048;-68
2022/01/22 12:32:51;;;;;;;5.90;2.58;;;;;;;9.42;76.37;103474.34;5046460;28;20504;-68
2022/01/22 12:35:44;;;;;;;6.55;2.10;;;;;;;9.34;76.36;103473.41;5042757;28;20052;-68
2022/01/22 12:38:24;;;;;;;7.95;2.25;;;;;;;9.30;76.31;103480.09;5039455;28;20037;-69
2022/01/22 12:40:56;;;;;;;10.35;1.77;;;;;;;9.25;75.77;103474.34;5041663;28;20032;-68
2022/01/22 12:43:31;;;;;;;6.85;2.20;;;;;;;9.50;74.98;103481.63;5044022;28;20672;-67
2022/01/22 12:45:59;;;;;;;6.03;1.92;;;;;;;9.18;75.20;103489.38;5039652;28;20114;-69
2022/01/22 12:48:33;;;;;;;7.53;1.58;;;;;;;9.53;75.04;103482.16;5043757;28;20500;-68
2022/01/22 12:51:04;;;;;;;6.47;2.05;;;;;;;9.33;75.67;103490.53;5044246;28;20029;-68
2022/01/22 12:53:31;;;;;;;7.15;2.33;;;;;;;9.47;74.73;103490.81;5044040;28;20021;-69
2022/01/22 12:58:49;;;;;;;4.72;1.60;;;;;;;9.17;75.31;103501.09;5042833;28;20029;-69
2022/01/22 13:01:17;;;;;;;5.30;1.67;;;;;;;9.32;74.31;103500.41;5034621;28;20386;-69
2022/01/22 13:03:46;;;;;;;12.80;2.25;;;;;;;9.28;75.15;103499.03;5044692;28;20041;-69
2022/01/22 13:06:12;;;;;;;4.35;1.63;;;;;;;8.82;76.38;103505.38;5043156;28;20033;-61
2022/01/22 13:08:37;;;;;;;9.48;2.10;;;;;;;8.78;76.53;103517.41;5046823;28;20020;-61
2022/01/22 13:11:07;;;;;;;3.63;1.20;;;;;;;9.25;75.19;103503.88;5040488;28;20048;-60
2022/01/22 13:13:32;;;;;;;5.88;1.60;;;;;;;9.09;75.34;103506.34;5045372;28;20025;-60
2022/01/22 13:16:13;;;;;;;9.45;2.10;;;;;;;9.52;74.90;103501.13;5041494;28;20029;-61
2022/01/22 13:18:51;;;;;;;8.27;2.05;;;;;;;9.54;73.65;103491.06;5043144;28;20387;-60
2022/01/22 13:21:19;;;;;;;7.15;1.80;;;;;;;9.66;73.88;103488.00;5032282;28;20041;-60
2022/01/22 13:23:47;;;;;;;4.70;1.85;;;;;;;9.44;74.61;103493.84;5038336;28;20053;-60
2022/01/22 13:26:13;;;;;;;7.20;1.73;;;;;;;9.45;74.98;103489.31;5045546;28;20048;-61
2022/01/22 13:28:39;;;;;;;7.57;1.60;;;;;;;9.54;75.13;103497.28;5029212;28;20028;-60